HTIR

Iringa Airport

Airport
ICAO code
HTIR
IATA Code
IRI
Summary
ICAO Region
AFI
ICAO Territory
Location

Iringa, Iringa Region

Serving
Iringa
Elevation
4678 ft
Coordinates
7° 40' 10" S , 35° 45' 5" E
KCC
Metar
HTIR 240500Z 00000KT 9999 FEW019 15/09 Q1025

Iringa Airport is an airport in Tanzania serving Iringa and the surrounding Iringa Region

Climatology

Tropical Savanna climate (Köppen climate classification Aw)

Runways

Designator Length Width Surface Rops
2/20 1679 30 ASP No/No

Airport map

Aerial View

SKYbrary Partners:

Safety knowledge contributed by: